sensor_id;sensor_type;location;lat;lon;timestamp;pressure;altitude;pressure_sealevel;temperature;humidity
69402;BME280;56589;51.992;5.924;2024-02-28T00:00:53;101429.56;;;2.69;88.27
69402;BME280;56589;51.992;5.924;2024-02-28T00:03:19;101429.59;;;2.68;88.62
69402;BME280;56589;51.992;5.924;2024-02-28T00:05:45;101426.13;;;2.69;88.65
69402;BME280;56589;51.992;5.924;2024-02-28T00:08:11;101422.66;;;2.70;88.28
69402;BME280;56589;51.992;5.924;2024-02-28T00:10:36;101418.31;;;2.70;88.47
69402;BME280;56589;51.992;5.924;2024-02-28T00:13:05;101419.22;;;2.68;88.19
69402;BME280;56589;51.992;5.924;2024-02-28T00:15:31;101418.41;;;2.66;88.22
69402;BME280;56589;51.992;5.924;2024-02-28T00:17:56;101420.19;;;2.64;88.24
69402;BME280;56589;51.992;5.924;2024-02-28T00:20:23;101428.81;;;2.64;88.17
69402;BME280;56589;51.992;5.924;2024-02-28T00:22:49;101440.88;;;2.65;88.38
69402;BME280;56589;51.992;5.924;2024-02-28T00:25:15;101448.66;;;2.65;88.15
69402;BME280;56589;51.992;5.924;2024-02-28T00:27:41;101449.56;;;2.64;88.38
69402;BME280;56589;51.992;5.924;2024-02-28T00:30:10;101431.41;;;2.64;88.68
69402;BME280;56589;51.992;5.924;2024-02-28T00:32:37;101430.53;;;2.65;88.26
69402;BME280;56589;51.992;5.924;2024-02-28T00:35:03;101427.03;;;2.66;88.27
69402;BME280;56589;51.992;5.924;2024-02-28T00:37:30;101422.69;;;2.67;88.61
69402;BME280;56589;51.992;5.924;2024-02-28T00:39:56;101425.28;;;2.67;88.45
69402;BME280;56589;51.992;5.924;2024-02-28T00:42:22;101424.41;;;2.68;88.20
69402;BME280;56589;51.992;5.924;2024-02-28T00:44:47;101423.56;;;2.67;88.68
69402;BME280;56589;51.992;5.924;2024-02-28T00:47:16;101425.28;;;2.68;89.02
69402;BME280;56589;51.992;5.924;2024-02-28T00:49:42;101422.66;;;2.70;88.95
69402;BME280;56589;51.992;5.924;2024-02-28T00:52:07;101423.47;;;2.72;88.87
69402;BME280;56589;51.992;5.924;2024-02-28T00:54:33;101427.78;;;2.71;89.00
69402;BME280;56589;51.992;5.924;2024-02-28T00:56:59;101423.41;;;2.73;89.06
69402;BME280;56589;51.992;5.924;2024-02-28T00:59:25;101418.22;;;2.75;89.12
69402;BME280;56589;51.992;5.924;2024-02-28T01:01:51;101411.28;;;2.75;89.11
69402;BME280;56589;51.992;5.924;2024-02-28T01:04:19;101413.84;;;2.77;88.94
69402;BME280;56589;51.992;5.924;2024-02-28T01:06:45;101411.22;;;2.78;88.84
69402;BME280;56589;51.992;5.924;2024-02-28T01:09:11;101413.78;;;2.80;88.71
69402;BME280;56589;51.992;5.924;2024-02-28T01:11:37;101412.06;;;2.81;88.88
69402;BME280;56589;51.992;5.924;2024-02-28T01:14:03;101414.59;;;2.82;88.65
69402;BME280;56589;51.992;5.924;2024-02-28T01:16:29;101407.72;;;2.81;88.90
69402;BME280;56589;51.992;5.924;2024-02-28T01:18:55;101412.81;;;2.84;89.01
69402;BME280;56589;51.992;5.924;2024-02-28T01:21:23;101405.91;;;2.85;88.71
69402;BME280;56589;51.992;5.924;2024-02-28T01:23:49;101412.78;;;2.86;88.81
69402;BME280;56589;51.992;5.924;2024-02-28T01:26:15;101415.38;;;2.87;88.67
69402;BME280;56589;51.992;5.924;2024-02-28T01:28:41;101417.97;;;2.87;88.45
69402;BME280;56589;51.992;5.924;2024-02-28T01:31:07;101417.09;;;2.87;88.37
69402;BME280;56589;51.992;5.924;2024-02-28T01:33:32;101413.63;;;2.86;88.29
69402;BME280;56589;51.992;5.924;2024-02-28T01:35:58;101418.81;;;2.86;88.40
69402;BME280;56589;51.992;5.924;2024-02-28T01:38:26;101419.69;;;2.87;88.67
69402;BME280;56589;51.992;5.924;2024-02-28T01:40:52;101418.84;;;2.85;88.36
69402;BME280;56589;51.992;5.924;2024-02-28T01:43:18;101415.41;;;2.84;88.69
69402;BME280;56589;51.992;5.924;2024-02-28T01:45:44;101418.00;;;2.84;88.86
69402;BME280;56589;51.992;5.924;2024-02-28T01:48:11;101416.28;;;2.85;88.88
69402;BME280;56589;51.992;5.924;2024-02-28T01:50:38;101424.94;;;2.84;88.59
69402;BME280;56589;51.992;5.924;2024-02-28T01:53:06;101413.75;;;2.82;88.86
69402;BME280;56589;51.992;5.924;2024-02-28T01:55:37;101422.44;;;2.79;88.81
69402;BME280;56589;51.992;5.924;2024-02-28T01:58:03;101421.63;;;2.77;88.64
69402;BME280;56589;51.992;5.924;2024-02-28T02:00:32;101419.97;;;2.74;88.75
69402;BME280;56589;51.992;5.924;2024-02-28T02:02:59;101419.13;;;2.72;89.18
69402;BME280;56589;51.992;5.924;2024-02-28T02:05:25;101419.94;;;2.76;89.03
69402;BME280;56589;51.992;5.924;2024-02-28T02:07:51;101419.94;;;2.76;88.96
69402;BME280;56589;51.992;5.924;2024-02-28T02:10:17;101426.88;;;2.74;89.11
69402;BME280;56589;51.992;5.924;2024-02-28T02:12:46;101419.09;;;2.74;89.08
69402;BME280;56589;51.992;5.924;2024-02-28T02:15:12;101421.72;;;2.72;88.57
69402;BME280;56589;51.992;5.924;2024-02-28T02:17:37;101426.06;;;2.72;88.80
69402;BME280;56589;51.992;5.924;2024-02-28T02:20:04;101427.75;;;2.73;89.07
69402;BME280;56589;51.992;5.924;2024-02-28T02:22:37;101415.72;;;2.70;89.30
69402;BME280;56589;51.992;5.924;2024-02-28T02:25:04;101415.75;;;2.69;89.03
69402;BME280;56589;51.992;5.924;2024-02-28T02:27:30;101426.97;;;2.69;89.17
69402;BME280;56589;51.992;5.924;2024-02-28T02:29:56;101421.81;;;2.69;89.17
69402;BME280;56589;51.992;5.924;2024-02-28T02:32:22;101420.94;;;2.69;89.23
69402;BME280;56589;51.992;5.924;2024-02-28T02:34:48;101425.28;;;2.68;89.56
69402;BME280;56589;51.992;5.924;2024-02-28T02:37:14;101420.09;;;2.68;89.07
69402;BME280;56589;51.992;5.924;2024-02-28T02:39:42;101422.66;;;2.70;89.33
69402;BME280;56589;51.992;5.924;2024-02-28T02:42:09;101417.50;;;2.67;89.23
69402;BME280;56589;51.992;5.924;2024-02-28T02:44:34;101421.00;;;2.66;89.32
69402;BME280;56589;51.992;5.924;2024-02-28T02:47:00;101416.75;;;2.63;89.04
69402;BME280;56589;51.992;5.924;2024-02-28T02:49:26;101428.81;;;2.64;88.99
69402;BME280;56589;51.992;5.924;2024-02-28T02:51:52;101423.63;;;2.64;88.88
69402;BME280;56589;51.992;5.924;2024-02-28T02:54:18;101428.88;;;2.61;88.87
69402;BME280;56589;51.992;5.924;2024-02-28T02:56:46;101417.72;;;2.58;88.60
69402;BME280;56589;51.992;5.924;2024-02-28T02:59:12;101415.22;;;2.53;88.77
69402;BME280;56589;51.992;5.924;2024-02-28T03:01:38;101422.19;;;2.51;89.06
69402;BME280;56589;51.992;5.924;2024-02-28T03:04:04;101420.47;;;2.50;89.34
69402;BME280;56589;51.992;5.924;2024-02-28T03:06:29;101419.59;;;2.49;89.32
69402;BME280;56589;51.992;5.924;2024-02-28T03:08:55;101417.94;;;2.47;88.97
69402;BME280;56589;51.992;5.924;2024-02-28T03:11:21;101414.50;;;2.46;89.08
69402;BME280;56589;51.992;5.924;2024-02-28T03:13:49;101417.97;;;2.45;89.49
69402;BME280;56589;51.992;5.924;2024-02-28T03:16:15;101421.41;;;2.46;89.13
69402;BME280;56589;51.992;5.924;2024-02-28T03:18:41;101417.13;;;2.45;89.53
69402;BME280;56589;51.992;5.924;2024-02-28T03:21:07;101415.38;;;2.45;89.27
69402;BME280;56589;51.992;5.924;2024-02-28T03:23:33;101408.50;;;2.44;89.11
69402;BME280;56589;51.992;5.924;2024-02-28T03:25:59;101408.50;;;2.44;89.30
69402;BME280;56589;51.992;5.924;2024-02-28T03:28:24;101414.53;;;2.45;89.69
69402;BME280;56589;51.992;5.924;2024-02-28T03:30:53;101413.66;;;2.46;89.23
69402;BME280;56589;51.992;5.924;2024-02-28T03:33:19;101417.97;;;2.45;89.54
69402;BME280;56589;51.992;5.924;2024-02-28T03:35:44;101418.78;;;2.47;89.28
69402;BME280;56589;51.992;5.924;2024-02-28T03:38:10;101415.38;;;2.45;89.39
69402;BME280;56589;51.992;5.924;2024-02-28T03:40:36;101416.22;;;2.46;89.09
69402;BME280;56589;51.992;5.924;2024-02-28T03:43:02;101421.41;;;2.46;89.54
69402;BME280;56589;51.992;5.924;2024-02-28T03:45:29;101420.56;;;2.45;89.27
69402;BME280;56589;51.992;5.924;2024-02-28T03:47:57;101424.06;;;2.44;89.38
69402;BME280;56589;51.992;5.924;2024-02-28T03:50:23;101418.88;;;2.43;89.38
69402;BME280;56589;51.992;5.924;2024-02-28T03:52:49;101425.03;;;2.39;89.02
69402;BME280;56589;51.992;5.924;2024-02-28T03:55:15;101419.03;;;2.35;89.23
69402;BME280;56589;51.992;5.924;2024-02-28T03:57:41;101416.53;;;2.31;88.92
69402;BME280;56589;51.992;5.924;2024-02-28T04:00:08;101415.72;;;2.29;88.91
69402;BME280;56589;51.992;5.924;2024-02-28T04:02:35;101422.63;;;2.28;89.20
69402;BME280;56589;51.992;5.924;2024-02-28T04:05:04;101424.38;;;2.28;89.35
69402;BME280;56589;51.992;5.924;2024-02-28T04:07:30;101431.34;;;2.24;89.08
69402;BME280;56589;51.992;5.924;2024-02-28T04:09:56;101424.53;;;2.20;89.34
69402;BME280;56589;51.992;5.924;2024-02-28T04:12:22;101430.53;;;2.22;89.57
69402;BME280;56589;51.992;5.924;2024-02-28T04:14:48;101427.91;;;2.23;89.27
69402;BME280;56589;51.992;5.924;2024-02-28T04:17:14;101432.22;;;2.23;89.47
69402;BME280;56589;51.992;5.924;2024-02-28T04:19:39;101427.91;;;2.23;89.42
69402;BME280;56589;51.992;5.924;2024-02-28T04:22:08;101437.38;;;2.24;89.02
69402;BME280;56589;51.992;5.924;2024-02-28T04:24:34;101433.13;;;2.22;89.16
69402;BME280;56589;51.992;5.924;2024-02-28T04:26:59;101443.59;;;2.16;89.24
69402;BME280;56589;51.992;5.924;2024-02-28T04:29:25;101441.03;;;2.13;89.38
69402;BME280;56589;51.992;5.924;2024-02-28T04:31:51;101438.44;;;2.13;89.48
69402;BME280;56589;51.992;5.924;2024-02-28T04:34:17;101437.56;;;2.15;89.46
69402;BME280;56589;51.992;5.924;2024-02-28T04:36:43;101438.41;;;2.16;89.14
69402;BME280;56589;51.992;5.924;2024-02-28T04:39:11;101441.00;;;2.16;89.50
69402;BME280;56589;51.992;5.924;2024-02-28T04:41:37;101442.72;;;2.17;89.56
69402;BME280;56589;51.992;5.924;2024-02-28T04:44:03;101444.41;;;2.19;89.20
69402;BME280;56589;51.992;5.924;2024-02-28T04:46:29;101444.41;;;2.19;89.21
69402;BME280;56589;51.992;5.924;2024-02-28T04:48:54;101446.09;;;2.19;89.13
69402;BME280;56589;51.992;5.924;2024-02-28T04:51:20;101451.28;;;2.19;88.96
69402;BME280;56589;51.992;5.924;2024-02-28T04:53:46;101450.47;;;2.17;89.21
69402;BME280;56589;51.992;5.924;2024-02-28T04:56:14;101457.41;;;2.16;89.01
69402;BME280;56589;51.992;5.924;2024-02-28T04:58:40;101447.97;;;2.14;89.26
69402;BME280;56589;51.992;5.924;2024-02-28T05:01:06;101452.25;;;2.15;89.47
69402;BME280;56589;51.992;5.924;2024-02-28T05:03:32;101459.22;;;2.11;89.19
69402;BME280;56589;51.992;5.924;2024-02-28T05:05:58;101459.28;;;2.08;88.79
69402;BME280;56589;51.992;5.924;2024-02-28T05:08:24;101466.19;;;2.08;88.82
69402;BME280;56589;51.992;5.924;2024-02-28T05:10:50;101462.75;;;2.07;88.84
69402;BME280;56589;51.992;5.924;2024-02-28T05:13:19;101456.72;;;2.05;88.72
69402;BME280;56589;51.992;5.924;2024-02-28T05:15:45;101456.81;;;2.02;88.84
69402;BME280;56589;51.992;5.924;2024-02-28T05:18:10;101460.28;;;2.00;89.05
69402;BME280;56589;51.992;5.924;2024-02-28T05:20:36;101462.09;;;1.96;88.91
69402;BME280;56589;51.992;5.924;2024-02-28T05:23:02;101463.84;;;1.94;89.22
69402;BME280;56589;51.992;5.924;2024-02-28T05:25:28;101470.78;;;1.92;89.34
69402;BME280;56589;51.992;5.924;2024-02-28T05:27:54;101464.78;;;1.90;89.04
69402;BME280;56589;51.992;5.924;2024-02-28T05:30:22;101462.19;;;1.90;89.48
69402;BME280;56589;51.992;5.924;2024-02-28T05:32:48;101463.94;;;1.89;88.99
69402;BME280;56589;51.992;5.924;2024-02-28T05:35:14;101464.78;;;1.88;89.37
69402;BME280;56589;51.992;5.924;2024-02-28T05:37:40;101469.13;;;1.88;89.62
69402;BME280;56589;51.992;5.924;2024-02-28T05:40:07;101475.16;;;1.90;89.57
69402;BME280;56589;51.992;5.924;2024-02-28T05:42:34;101481.16;;;1.92;89.37
69402;BME280;56589;51.992;5.924;2024-02-28T05:44:59;101477.69;;;1.91;89.51
69402;BME280;56589;51.992;5.924;2024-02-28T05:47:28;101476.81;;;1.92;89.65
69402;BME280;56589;51.992;5.924;2024-02-28T05:49:54;101479.41;;;1.92;89.71
69402;BME280;56589;51.992;5.924;2024-02-28T05:52:19;101475.06;;;1.93;89.86
69402;BME280;56589;51.992;5.924;2024-02-28T05:54:45;101482.88;;;1.91;89.37
69402;BME280;56589;51.992;5.924;2024-02-28T05:57:11;101482.84;;;1.93;89.25
69402;BME280;56589;51.992;5.924;2024-02-28T05:59:37;101485.47;;;1.91;89.67
69402;BME280;56589;51.992;5.924;2024-02-28T06:02:03;101487.22;;;1.91;89.48
69402;BME280;56589;51.992;5.924;2024-02-28T06:04:31;101483.81;;;1.89;89.58
69402;BME280;56589;51.992;5.924;2024-02-28T06:06:57;101490.72;;;1.87;89.31
69402;BME280;56589;51.992;5.924;2024-02-28T06:09:23;101483.84;;;1.86;89.59
69402;BME280;56589;51.992;5.924;2024-02-28T06:11:49;101476.94;;;1.85;89.23
69402;BME280;56589;51.992;5.924;2024-02-28T06:14:15;101480.44;;;1.84;89.33
69402;BME280;56589;51.992;5.924;2024-02-28T06:16:41;101487.38;;;1.80;89.28
69402;BME280;56589;51.992;5.924;2024-02-28T06:19:06;101496.06;;;1.78;89.22
69402;BME280;56589;51.992;5.924;2024-02-28T06:21:35;101498.66;;;1.76;89.12
69402;BME280;56589;51.992;5.924;2024-02-28T06:24:01;101501.31;;;1.73;89.14
69402;BME280;56589;51.992;5.924;2024-02-28T06:26:26;101503.03;;;1.73;89.54
69402;BME280;56589;51.992;5.924;2024-02-28T06:28:52;101503.94;;;1.72;89.27
69402;BME280;56589;51.992;5.924;2024-02-28T06:31:18;101506.50;;;1.70;89.18
69402;BME280;56589;51.992;5.924;2024-02-28T06:33:44;101512.59;;;1.67;89.08
69402;BME280;56589;51.992;5.924;2024-02-28T06:36:10;101509.19;;;1.65;89.03
69402;BME280;56589;51.992;5.924;2024-02-28T06:38:38;101510.09;;;1.64;89.46
69402;BME280;56589;51.992;5.924;2024-02-28T06:41:04;101512.66;;;1.64;89.05
69402;BME280;56589;51.992;5.924;2024-02-28T06:43:33;101521.28;;;1.63;89.11
69402;BME280;56589;51.992;5.924;2024-02-28T06:45:59;101524.75;;;1.62;89.47
69402;BME280;56589;51.992;5.924;2024-02-28T06:48:25;101524.75;;;1.62;89.29
69402;BME280;56589;51.992;5.924;2024-02-28T06:50:51;101519.63;;;1.61;89.24
69402;BME280;56589;51.992;5.924;2024-02-28T06:53:16;101526.53;;;1.60;89.57
69402;BME280;56589;51.992;5.924;2024-02-28T06:55:45;101529.91;;;1.65;89.91
69402;BME280;56589;51.992;5.924;2024-02-28T06:58:11;101531.59;;;1.68;89.80
69402;BME280;56589;51.992;5.924;2024-02-28T07:00:36;101538.44;;;1.72;89.94
69402;BME280;56589;51.992;5.924;2024-02-28T07:03:02;101535.81;;;1.74;89.87
69402;BME280;56589;51.992;5.924;2024-02-28T07:05:29;101530.59;;;1.75;89.72
69402;BME280;56589;51.992;5.924;2024-02-28T07:07:54;101535.72;;;1.80;89.76
69402;BME280;56589;51.992;5.924;2024-02-28T07:10:20;101544.31;;;1.82;90.07
69402;BME280;56589;51.992;5.924;2024-02-28T07:12:49;101547.69;;;1.87;89.88
69402;BME280;56589;51.992;5.924;2024-02-28T07:15:14;101553.66;;;1.92;89.98
69402;BME280;56589;51.992;5.924;2024-02-28T07:17:40;101546.69;;;1.95;89.76
69402;BME280;56589;51.992;5.924;2024-02-28T07:20:07;101549.16;;;2.03;89.95
69402;BME280;56589;51.992;5.924;2024-02-28T07:22:33;101556.00;;;2.06;89.83
69402;BME280;56589;51.992;5.924;2024-02-28T07:24:59;101554.22;;;2.09;89.45
69402;BME280;56589;51.992;5.924;2024-02-28T07:27:25;101556.72;;;2.15;89.63
69402;BME280;56589;51.992;5.924;2024-02-28T07:29:54;101558.38;;;2.18;89.67
69402;BME280;56589;51.992;5.924;2024-02-28T07:32:19;101557.47;;;2.22;89.49
69402;BME280;56589;51.992;5.924;2024-02-28T07:34:45;101567.75;;;2.25;89.33
69402;BME280;56589;51.992;5.924;2024-02-28T07:37:11;101572.97;;;2.23;89.34
69402;BME280;56589;51.992;5.924;2024-02-28T07:39:37;101573.84;;;2.24;89.60
69402;BME280;56589;51.992;5.924;2024-02-28T07:42:03;101571.25;;;2.26;89.46
69402;BME280;56589;51.992;5.924;2024-02-28T07:44:30;101576.38;;;2.27;89.30
69402;BME280;56589;51.992;5.924;2024-02-28T07:46:58;101581.53;;;2.29;89.43
69402;BME280;56589;51.992;5.924;2024-02-28T07:49:24;101580.56;;;2.34;89.83
69402;BME280;56589;51.992;5.924;2024-02-28T07:51:50;101588.19;;;2.43;89.62
69402;BME280;56589;51.992;5.924;2024-02-28T07:54:16;101588.94;;;2.50;89.34
69402;BME280;56589;51.992;5.924;2024-02-28T07:56:42;101588.84;;;2.56;89.37
69402;BME280;56589;51.992;5.924;2024-02-28T07:59:09;101580.09;;;2.60;89.27
69402;BME280;56589;51.992;5.924;2024-02-28T08:01:36;101585.16;;;2.68;89.56
69402;BME280;56589;51.992;5.924;2024-02-28T08:04:06;101588.41;;;2.81;89.67
69402;BME280;56589;51.992;5.924;2024-02-28T08:06:32;101585.59;;;2.90;89.56
69402;BME280;56589;51.992;5.924;2024-02-28T08:09:00;101596.72;;;2.96;89.28
69402;BME280;56589;51.992;5.924;2024-02-28T08:11:26;101595.75;;;3.02;89.14
69402;BME280;56589;51.992;5.924;2024-02-28T08:13:52;101601.66;;;3.09;89.14
69402;BME280;56589;51.992;5.924;2024-02-28T08:16:18;101604.13;;;3.15;89.21
69402;BME280;56589;51.992;5.924;2024-02-28T08:18:43;101598.91;;;3.18;88.61
69402;BME280;56589;51.992;5.924;2024-02-28T08:21:12;101603.97;;;3.22;88.86
69402;BME280;56589;51.992;5.924;2024-02-28T08:23:38;101621.25;;;3.23;88.92
69402;BME280;56589;51.992;5.924;2024-02-28T08:26:03;101608.28;;;3.23;88.27
69402;BME280;56589;51.992;5.924;2024-02-28T08:28:29;101613.41;;;3.26;88.82
69402;BME280;56589;51.992;5.924;2024-02-28T08:30:55;101615.00;;;3.34;88.93
69402;BME280;56589;51.992;5.924;2024-02-28T08:33:21;101618.25;;;3.43;88.89
69402;BME280;56589;51.992;5.924;2024-02-28T08:35:47;101608.63;;;3.48;88.67
69402;BME280;56589;51.992;5.924;2024-02-28T08:38:15;101615.50;;;3.51;88.33
69402;BME280;56589;51.992;5.924;2024-02-28T08:40:41;101615.44;;;3.52;88.21
69402;BME280;56589;51.992;5.924;2024-02-28T08:43:07;101614.50;;;3.56;88.37
69402;BME280;56589;51.992;5.924;2024-02-28T08:45:33;101623.06;;;3.62;88.49
69402;BME280;56589;51.992;5.924;2024-02-28T08:47:58;101622.06;;;3.67;88.26
69402;BME280;56589;51.992;5.924;2024-02-28T08:50:24;101627.19;;;3.70;88.28
69402;BME280;56589;51.992;5.924;2024-02-28T08:52:50;101619.34;;;3.72;87.69
69402;BME280;56589;51.992;5.924;2024-02-28T08:55:18;101623.69;;;3.73;88.26
69402;BME280;56589;51.992;5.924;2024-02-28T08:57:44;101626.16;;;3.77;88.34
69402;BME280;56589;51.992;5.924;2024-02-28T09:00:11;101628.56;;;3.87;88.64
69402;BME280;56589;51.992;5.924;2024-02-28T09:02:38;101630.88;;;3.99;88.49
69402;BME280;56589;51.992;5.924;2024-02-28T09:05:05;101622.84;;;4.09;88.40
69402;BME280;56589;51.992;5.924;2024-02-28T09:07:32;101627.75;;;4.20;88.20
69402;BME280;56589;51.992;5.924;2024-02-28T09:09:57;101622.47;;;4.25;87.98
69402;BME280;56589;51.992;5.924;2024-02-28T09:12:26;101624.94;;;4.29;87.92
69402;BME280;56589;51.992;5.924;2024-02-28T09:14:52;101618.81;;;4.32;87.60
69402;BME280;56589;51.992;5.924;2024-02-28T09:17:17;101623.91;;;4.36;87.34
69402;BME280;56589;51.992;5.924;2024-02-28T09:19:43;101628.06;;;4.44;87.83
69402;BME280;56589;51.992;5.924;2024-02-28T09:22:09;101628.75;;;4.50;87.62
69402;BME280;56589;51.992;5.924;2024-02-28T09:24:37;101631.34;;;4.50;87.10
69402;BME280;56589;51.992;5.924;2024-02-28T09:27:03;101635.78;;;4.47;86.95
69402;BME280;56589;51.992;5.924;2024-02-28T09:29:31;101624.66;;;4.42;87.08
69402;BME280;56589;51.992;5.924;2024-02-28T09:31:57;101627.25;;;4.42;86.88
69402;BME280;56589;51.992;5.924;2024-02-28T09:34:23;101630.66;;;4.44;87.02
69402;BME280;56589;51.992;5.924;2024-02-28T09:36:49;101627.13;;;4.46;86.92
69402;BME280;56589;51.992;5.924;2024-02-28T09:39:15;101621.91;;;4.46;87.14
69402;BME280;56589;51.992;5.924;2024-02-28T09:41:41;101624.50;;;4.46;87.10
69402;BME280;56589;51.992;5.924;2024-02-28T09:44:07;101636.75;;;4.43;87.05
69402;BME280;56589;51.992;5.924;2024-02-28T09:46:36;101628.94;;;4.43;86.80
69402;BME280;56589;51.992;5.924;2024-02-28T09:49:04;101628.94;;;4.43;86.93
69402;BME280;56589;51.992;5.924;2024-02-28T09:51:30;101624.66;;;4.42;86.99
69402;BME280;56589;51.992;5.924;2024-02-28T09:53:59;101629.00;;;4.41;86.61
69402;BME280;56589;51.992;5.924;2024-02-28T09:56:25;101622.06;;;4.40;87.03
69402;BME280;56589;51.992;5.924;2024-02-28T09:58:51;101628.91;;;4.44;87.61
69402;BME280;56589;51.992;5.924;2024-02-28T10:01:19;101629.53;;;4.54;87.50
69402;BME280;56589;51.992;5.924;2024-02-28T10:03:51;101630.28;;;4.59;87.16
69402;BME280;56589;51.992;5.924;2024-02-28T10:06:17;101626.47;;;4.71;88.00
69402;BME280;56589;51.992;5.924;2024-02-28T10:08:43;101630.50;;;4.84;87.74
69402;BME280;56589;51.992;5.924;2024-02-28T10:11:09;101638.84;;;4.97;87.86
69402;BME280;56589;51.992;5.924;2024-02-28T10:13:35;101634.28;;;5.05;87.50
69402;BME280;56589;51.992;5.924;2024-02-28T10:16:01;101635.75;;;5.13;87.48
69402;BME280;56589;51.992;5.924;2024-02-28T10:18:27;101632.19;;;5.17;86.93
69402;BME280;56589;51.992;5.924;2024-02-28T10:20:56;101629.53;;;5.19;87.16
69402;BME280;56589;51.992;5.924;2024-02-28T10:23:22;101635.41;;;5.27;86.82
69402;BME280;56589;51.992;5.924;2024-02-28T10:25:48;101639.41;;;5.39;87.19
69402;BME280;56589;51.992;5.924;2024-02-28T10:28:14;101635.63;;;5.49;86.61
69402;BME280;56589;51.992;5.924;2024-02-28T10:30:40;101634.50;;;5.58;86.49
69402;BME280;56589;51.992;5.924;2024-02-28T10:33:10;101636.78;;;5.68;87.05
69402;BME280;56589;51.992;5.924;2024-02-28T10:35:36;101637.41;;;5.77;86.85
69402;BME280;56589;51.992;5.924;2024-02-28T10:38:06;101634.63;;;5.83;86.69
69402;BME280;56589;51.992;5.924;2024-02-28T10:40:31;101643.00;;;5.92;86.26
69402;BME280;56589;51.992;5.924;2024-02-28T10:42:57;101642.78;;;6.00;86.11
69402;BME280;56589;51.992;5.924;2024-02-28T10:45:27;101640.06;;;6.03;85.88
69402;BME280;56589;51.992;5.924;2024-02-28T10:47:56;101640.84;;;6.07;85.59
69402;BME280;56589;51.992;5.924;2024-02-28T10:50:22;101630.16;;;6.14;85.67
69402;BME280;56589;51.992;5.924;2024-02-28T10:52:48;101626.50;;;6.20;85.96
69402;BME280;56589;51.992;5.924;2024-02-28T10:55:21;101632.25;;;6.30;86.01
69402;BME280;56589;51.992;5.924;2024-02-28T10:57:50;101628.66;;;6.34;85.28
69402;BME280;56589;51.992;5.924;2024-02-28T11:00:23;101632.91;;;6.36;85.33
69402;BME280;56589;51.992;5.924;2024-02-28T11:02:49;101645.00;;;6.39;84.84
69402;BME280;56589;51.992;5.924;2024-02-28T11:05:15;101629.41;;;6.37;85.08
69402;BME280;56589;51.992;5.924;2024-02-28T11:07:41;101630.25;;;6.38;84.88
69402;BME280;56589;51.992;5.924;2024-02-28T11:10:09;101627.53;;;6.41;85.09
69402;BME280;56589;51.992;5.924;2024-02-28T11:12:38;101625.63;;;6.46;84.71
69402;BME280;56589;51.992;5.924;2024-02-28T11:15:05;101625.63;;;6.46;84.47
69402;BME280;56589;51.992;5.924;2024-02-28T11:17:41;101619.63;;;6.44;84.60
69402;BME280;56589;51.992;5.924;2024-02-28T11:20:16;101616.00;;;6.48;85.24
69402;BME280;56589;51.992;5.924;2024-02-28T11:22:43;101608.03;;;6.52;84.57
69402;BME280;56589;51.992;5.924;2024-02-28T11:25:09;101609.72;;;6.53;84.27
69402;BME280;56589;51.992;5.924;2024-02-28T11:27:45;101619.03;;;6.61;85.28
69402;BME280;56589;51.992;5.924;2024-02-28T11:30:13;101615.16;;;6.72;84.83
69402;BME280;56589;51.992;5.924;2024-02-28T11:32:39;101621.06;;;6.77;84.52
69402;BME280;56589;51.992;5.924;2024-02-28T11:35:05;101607.06;;;6.80;84.71
69402;BME280;56589;51.992;5.924;2024-02-28T11:37:32;101613.94;;;6.82;84.62
69402;BME280;56589;51.992;5.924;2024-02-28T11:39:59;101621.63;;;6.87;84.45
69402;BME280;56589;51.992;5.924;2024-02-28T11:42:25;101612.66;;;6.94;84.31
69402;BME280;56589;51.992;5.924;2024-02-28T11:44:56;101611.66;;;6.98;84.14
69402;BME280;56589;51.992;5.924;2024-02-28T11:47:22;101616.88;;;6.98;84.05
69402;BME280;56589;51.992;5.924;2024-02-28T11:49:48;101607.22;;;7.00;84.13
69402;BME280;56589;51.992;5.924;2024-02-28T11:52:14;101607.22;;;7.00;83.34
69402;BME280;56589;51.992;5.924;2024-02-28T11:54:40;101598.53;;;7.00;83.80
69402;BME280;56589;51.992;5.924;2024-02-28T11:57:07;101595.91;;;7.00;83.35
69402;BME280;56589;51.992;5.924;2024-02-28T11:59:36;101596.78;;;7.00;83.96
69402;BME280;56589;51.992;5.924;2024-02-28T12:02:11;101595.69;;;7.06;84.15
69402;BME280;56589;51.992;5.924;2024-02-28T12:04:37;101592.03;;;7.10;83.88
69402;BME280;56589;51.992;5.924;2024-02-28T12:07:04;101584.06;;;7.15;83.84
69402;BME280;56589;51.992;5.924;2024-02-28T12:09:30;101589.03;;;7.21;84.18
69402;BME280;56589;51.992;5.924;2024-02-28T12:11:56;101580.28;;;7.22;83.54
69402;BME280;56589;51.992;5.924;2024-02-28T12:14:25;101584.41;;;7.29;84.15
69402;BME280;56589;51.992;5.924;2024-02-28T12:16:52;101576.34;;;7.35;83.72
69402;BME280;56589;51.992;5.924;2024-02-28T12:19:20;101573.47;;;7.43;83.85
69402;BME280;56589;51.992;5.924;2024-02-28T12:21:46;101567.16;;;7.48;83.59
69402;BME280;56589;51.992;5.924;2024-02-28T12:24:13;101560.78;;;7.55;83.69
69402;BME280;56589;51.992;5.924;2024-02-28T12:26:38;101561.31;;;7.64;83.75
69402;BME280;56589;51.992;5.924;2024-02-28T12:29:05;101549.69;;;7.71;83.26
69402;BME280;56589;51.992;5.924;2024-02-28T12:31:31;101556.53;;;7.75;83.24
69402;BME280;56589;51.992;5.924;2024-02-28T12:33:57;101553.72;;;7.79;83.51
69402;BME280;56589;51.992;5.924;2024-02-28T12:36:25;101544.81;;;7.83;82.63
69402;BME280;56589;51.992;5.924;2024-02-28T12:38:51;101543.97;;;7.83;82.58
69402;BME280;56589;51.992;5.924;2024-02-28T12:41:17;101549.16;;;7.84;82.94
69402;BME280;56589;51.992;5.924;2024-02-28T12:43:43;101549.22;;;7.83;82.67
69402;BME280;56589;51.992;5.924;2024-02-28T12:46:09;101549.09;;;7.86;82.73
69402;BME280;56589;51.992;5.924;2024-02-28T12:48:37;101547.94;;;7.93;83.09
69402;BME280;56589;51.992;5.924;2024-02-28T12:51:04;101547.56;;;8.02;82.88
69402;BME280;56589;51.992;5.924;2024-02-28T12:53:32;101538.56;;;8.09;82.45
69402;BME280;56589;51.992;5.924;2024-02-28T12:55:58;101542.69;;;8.15;82.54